createdAt,value
2018-02-17T00:00:29.322Z,0.00
2018-02-17T00:01:29.325Z,0.00
2018-02-17T00:02:29.289Z,0.00
2018-02-17T00:03:29.250Z,0.00
2018-02-17T00:04:29.255Z,0.00
2018-02-17T00:05:29.173Z,0.00
2018-02-17T00:06:29.167Z,0.00
2018-02-17T00:07:29.115Z,0.00
2018-02-17T00:08:29.114Z,0.00
2018-02-17T00:09:29.113Z,0.00
2018-02-17T00:10:29.083Z,0.00
2018-02-17T00:11:29.028Z,0.00
2018-02-17T00:12:29.013Z,0.00
2018-02-17T00:13:29.033Z,0.00
2018-02-17T00:14:29.024Z,0.00
2018-02-17T00:15:28.939Z,0.00
2018-02-17T00:16:28.937Z,0.00
2018-02-17T00:17:28.888Z,0.00
2018-02-17T00:18:28.877Z,0.00
2018-02-17T00:19:28.856Z,0.00
2018-02-17T00:20:28.822Z,0.00
2018-02-17T00:21:28.797Z,0.00
2018-02-17T00:22:28.773Z,0.00
2018-02-17T00:23:28.756Z,0.00
2018-02-17T00:24:28.718Z,0.00
2018-02-17T00:25:28.707Z,0.00
2018-02-17T00:26:28.663Z,0.00
2018-02-17T00:27:28.660Z,0.00
2018-02-17T00:28:28.643Z,0.00
2018-02-17T00:29:28.626Z,0.00
2018-02-17T00:30:28.572Z,0.00
2018-02-17T00:31:28.572Z,0.00
2018-02-17T00:32:28.539Z,0.00
2018-02-17T00:33:28.530Z,0.00
2018-02-17T00:34:28.459Z,0.00
2018-02-17T00:35:28.470Z,0.00
2018-02-17T00:36:28.411Z,0.00
2018-02-17T00:37:28.400Z,0.00
2018-02-17T00:38:28.372Z,0.00
2018-02-17T00:39:28.373Z,0.00
2018-02-17T00:40:28.332Z,0.00
2018-02-17T00:41:28.301Z,0.00
2018-02-17T00:42:28.268Z,0.00
2018-02-17T00:43:28.249Z,0.00
2018-02-17T00:44:28.224Z,0.00
2018-02-17T00:45:28.224Z,0.00
2018-02-17T00:46:28.171Z,0.00
2018-02-17T00:47:28.170Z,0.00
2018-02-17T00:48:28.146Z,0.00
2018-02-17T00:49:28.088Z,0.00
2018-02-17T00:50:28.069Z,0.00
2018-02-17T00:51:28.152Z,0.00
2018-02-17T00:52:28.019Z,0.00
2018-02-17T00:53:28.008Z,0.00
2018-02-17T00:54:28.020Z,0.00
2018-02-17T00:55:27.939Z,0.00
2018-02-17T00:56:27.947Z,0.00
2018-02-17T00:57:27.932Z,0.00
2018-02-17T00:58:27.909Z,0.00
2018-02-17T00:59:27.916Z,0.00
2018-02-17T01:00:27.825Z,0.00
2018-02-17T01:01:27.831Z,0.00
2018-02-17T01:02:27.806Z,0.00
2018-02-17T01:03:27.784Z,0.00
2018-02-17T01:04:27.752Z,0.00
2018-02-17T01:05:27.749Z,0.00
2018-02-17T01:06:27.679Z,0.00
2018-02-17T01:07:27.680Z,0.00
2018-02-17T01:08:27.638Z,0.00
2018-02-17T01:09:27.605Z,0.00
2018-02-17T01:10:27.616Z,0.00
2018-02-17T01:11:27.565Z,0.00
2018-02-17T01:12:27.541Z,0.00
2018-02-17T01:13:27.538Z,0.00
2018-02-17T01:14:27.492Z,0.00
2018-02-17T01:15:27.458Z,0.00
2018-02-17T01:16:27.436Z,0.00
2018-02-17T01:17:27.429Z,0.00
2018-02-17T01:18:27.378Z,0.00
2018-02-17T01:19:27.392Z,0.00
2018-02-17T01:20:27.353Z,0.00
2018-02-17T01:21:27.318Z,0.00
2018-02-17T01:22:27.296Z,0.00
2018-02-17T01:23:27.290Z,0.00
2018-02-17T01:24:27.232Z,0.00
2018-02-17T01:25:27.238Z,0.00
2018-02-17T01:26:27.195Z,0.00
2018-02-17T01:27:27.190Z,0.00
2018-02-17T01:28:27.129Z,0.00
2018-02-17T01:29:27.118Z,0.00
2018-02-17T01:30:27.104Z,0.00
2018-02-17T01:31:27.094Z,0.00
2018-02-17T01:32:27.055Z,0.00
2018-02-17T01:33:27.039Z,0.00
2018-02-17T01:34:26.984Z,0.00
2018-02-17T01:35:26.967Z,0.00
2018-02-17T01:36:26.947Z,0.00
2018-02-17T01:37:26.907Z,0.00
2018-02-17T01:38:26.924Z,0.00
2018-02-17T01:39:26.881Z,0.00
2018-02-17T01:40:26.836Z,0.00
2018-02-17T01:41:26.826Z,0.00
2018-02-17T01:42:26.789Z,0.00
2018-02-17T01:43:26.769Z,0.00
2018-02-17T01:44:26.762Z,0.00
2018-02-17T01:45:26.737Z,0.00
2018-02-17T01:46:26.725Z,0.00
2018-02-17T01:47:26.655Z,0.00
2018-02-17T01:48:26.632Z,0.00
2018-02-17T01:49:26.634Z,0.00
2018-02-17T01:50:26.593Z,0.00
2018-02-17T01:51:26.599Z,0.00
2018-02-17T01:52:26.543Z,0.00
2018-02-17T01:53:26.560Z,0.00
2018-02-17T01:54:26.508Z,0.00
2018-02-17T01:55:26.476Z,0.00
2018-02-17T01:56:26.513Z,0.00
2018-02-17T01:57:26.431Z,0.00
2018-02-17T01:58:26.448Z,0.00
2018-02-17T01:59:26.365Z,0.00
2018-02-17T02:00:26.388Z,0.00
2018-02-17T02:01:26.320Z,0.00
2018-02-17T02:02:26.319Z,0.00
2018-02-17T02:03:26.277Z,0.00
2018-02-17T02:04:26.251Z,0.00
2018-02-17T02:05:26.245Z,0.00
2018-02-17T02:06:26.219Z,0.00
2018-02-17T02:07:26.186Z,0.00
2018-02-17T02:08:26.160Z,0.00
2018-02-17T02:09:26.142Z,0.00
2018-02-17T02:10:26.106Z,0.00
2018-02-17T02:11:26.076Z,0.00
2018-02-17T02:12:26.086Z,0.00
2018-02-17T02:13:26.018Z,0.00
2018-02-17T02:14:25.996Z,0.00
2018-02-17T02:15:26.005Z,0.00
2018-02-17T02:16:25.932Z,0.00
2018-02-17T02:17:25.986Z,0.00
2018-02-17T02:18:25.919Z,0.00
2018-02-17T02:19:25.943Z,0.00
2018-02-17T02:20:25.872Z,0.00
2018-02-17T02:21:25.834Z,0.00
2018-02-17T02:22:25.875Z,0.00
2018-02-17T02:23:25.791Z,0.00
2018-02-17T02:24:25.773Z,0.00
2018-02-17T02:25:25.767Z,0.00
2018-02-17T02:26:25.701Z,0.00
2018-02-17T02:27:25.687Z,0.00
2018-02-17T02:28:25.674Z,0.00
2018-02-17T02:29:25.626Z,0.00
2018-02-17T02:30:25.629Z,0.00
2018-02-17T02:31:25.632Z,0.00
2018-02-17T02:32:25.535Z,0.00
2018-02-17T02:33:25.540Z,0.00
2018-02-17T02:34:25.512Z,0.00
2018-02-17T02:35:25.525Z,0.00
2018-02-17T02:36:25.510Z,0.00
2018-02-17T02:37:25.442Z,0.00
2018-02-17T02:38:25.437Z,0.00
2018-02-17T02:39:25.438Z,0.00
2018-02-17T02:40:25.367Z,0.00
2018-02-17T02:41:25.355Z,0.00
2018-02-17T02:42:25.288Z,0.00
2018-02-17T02:43:25.275Z,0.00
2018-02-17T02:44:25.238Z,0.00
2018-02-17T02:45:25.252Z,0.00
2018-02-17T02:46:25.238Z,0.00
2018-02-17T02:47:25.195Z,0.00
2018-02-17T02:48:25.209Z,0.00
2018-02-17T02:49:25.146Z,0.00
2018-02-17T02:50:25.105Z,0.00
2018-02-17T02:51:25.110Z,0.00
2018-02-17T02:52:25.094Z,0.00
2018-02-17T02:53:25.071Z,0.00
2018-02-17T02:54:25.000Z,0.00
2018-02-17T02:55:25.042Z,0.00
2018-02-17T02:56:24.969Z,0.00
2018-02-17T02:57:24.949Z,0.00
2018-02-17T02:58:24.956Z,0.00
2018-02-17T02:59:24.883Z,0.00
2018-02-17T03:00:24.886Z,0.00
2018-02-17T03:01:24.821Z,0.00
2018-02-17T03:02:24.804Z,0.00
2018-02-17T03:03:24.798Z,0.00
2018-02-17T03:04:24.742Z,0.00
2018-02-17T03:05:24.752Z,0.00
2018-02-17T03:06:24.734Z,0.00
2018-02-17T03:07:24.715Z,0.00
2018-02-17T03:08:24.643Z,0.00
2018-02-17T03:09:24.646Z,0.00
2018-02-17T03:10:24.654Z,0.00
2018-02-17T03:11:24.566Z,0.00
2018-02-17T03:12:24.557Z,0.00
2018-02-17T03:13:24.555Z,0.00
2018-02-17T03:14:24.504Z,0.00
2018-02-17T03:15:24.498Z,0.00
2018-02-17T03:16:24.509Z,0.00
2018-02-17T03:17:25.183Z,0.00
2018-02-17T03:18:24.414Z,0.00
2018-02-17T03:19:24.385Z,0.00
2018-02-17T03:20:24.373Z,0.00
2018-02-17T03:21:24.341Z,0.00
2018-02-17T03:22:24.370Z,0.00
2018-02-17T03:23:24.293Z,0.00
2018-02-17T03:24:24.270Z,0.00
2018-02-17T03:25:24.239Z,0.00
2018-02-17T03:26:24.227Z,0.00
2018-02-17T03:27:24.175Z,0.00
2018-02-17T03:28:24.160Z,0.00
2018-02-17T03:29:24.164Z,0.00
2018-02-17T03:30:24.118Z,0.00
2018-02-17T03:31:24.079Z,0.00
2018-02-17T03:32:24.110Z,0.00
2018-02-17T03:33:24.022Z,0.00
2018-02-17T03:34:24.021Z,0.00
2018-02-17T03:35:23.998Z,0.00
2018-02-17T03:36:24.000Z,0.00
2018-02-17T03:37:24.013Z,0.00
2018-02-17T03:38:23.963Z,0.00
2018-02-17T03:39:23.904Z,0.00
2018-02-17T03:40:23.854Z,0.00
2018-02-17T03:41:23.877Z,0.00
2018-02-17T03:42:23.857Z,0.00
2018-02-17T03:43:23.863Z,0.00
2018-02-17T03:44:23.843Z,0.00
2018-02-17T03:45:23.753Z,0.00
2018-02-17T03:46:44.742Z,0.00
2018-02-17T03:47:23.708Z,0.00
2018-02-17T03:48:23.719Z,0.00
2018-02-17T03:49:23.679Z,0.00
2018-02-17T03:50:23.622Z,0.00
2018-02-17T03:51:25.238Z,0.00
2018-02-17T03:52:23.588Z,0.00
2018-02-17T03:53:23.583Z,0.00
2018-02-17T03:54:23.567Z,0.00
2018-02-17T03:55:23.506Z,0.00
2018-02-17T03:56:23.460Z,0.00
2018-02-17T03:57:23.443Z,0.00
2018-02-17T03:58:23.470Z,0.00
2018-02-17T03:59:23.428Z,0.00
2018-02-17T04:00:23.415Z,0.00
2018-02-17T04:01:23.346Z,0.00
2018-02-17T04:02:23.350Z,0.00
2018-02-17T04:03:23.280Z,0.00
2018-02-17T04:04:23.337Z,0.00
2018-02-17T04:05:23.259Z,0.00
2018-02-17T04:06:55.230Z,0.00
2018-02-17T04:07:23.197Z,0.00
2018-02-17T04:08:23.189Z,0.00
2018-02-17T04:09:23.135Z,0.00
2018-02-17T04:10:23.144Z,0.00
2018-02-17T04:11:23.107Z,0.00
2018-02-17T04:12:23.070Z,0.00
2018-02-17T04:13:23.203Z,0.00
2018-02-17T04:14:23.067Z,0.00
2018-02-17T04:15:23.063Z,0.00
2018-02-17T04:16:23.041Z,0.00
2018-02-17T04:17:22.991Z,0.00
2018-02-17T04:18:22.976Z,0.00
2018-02-17T04:19:22.898Z,0.00
2018-02-17T04:20:22.962Z,0.00
2018-02-17T04:21:22.880Z,0.00
2018-02-17T04:22:22.877Z,0.00
2018-02-17T04:23:22.786Z,0.00
2018-02-17T04:24:22.799Z,0.00
2018-02-17T04:25:22.916Z,0.00
2018-02-17T04:26:22.753Z,0.00
2018-02-17T04:27:22.792Z,0.00
2018-02-17T04:28:22.731Z,0.00
2018-02-17T04:29:22.922Z,0.00
2018-02-17T04:30:22.707Z,0.00
2018-02-17T04:31:22.642Z,0.00
2018-02-17T04:32:22.588Z,0.00
2018-02-17T04:33:22.628Z,0.00
2018-02-17T04:34:22.575Z,0.00
2018-02-17T04:35:22.505Z,0.00
2018-02-17T04:36:22.489Z,0.00
2018-02-17T04:37:22.496Z,0.00
2018-02-17T04:38:22.499Z,0.00
2018-02-17T04:39:22.414Z,0.00
2018-02-17T04:40:22.378Z,0.00
2018-02-17T04:41:22.370Z,0.00
2018-02-17T04:42:22.388Z,0.00
2018-02-17T04:43:22.323Z,0.00
2018-02-17T04:44:22.327Z,0.00
2018-02-17T04:45:22.286Z,0.00
2018-02-17T04:46:22.234Z,0.00
2018-02-17T04:47:22.355Z,0.00
2018-02-17T04:48:22.222Z,0.00
2018-02-17T04:49:22.221Z,0.00
2018-02-17T04:50:22.194Z,0.00
2018-02-17T04:51:22.153Z,0.00
2018-02-17T04:52:22.159Z,0.00
2018-02-17T04:53:22.176Z,0.00
2018-02-17T04:54:22.094Z,0.00
2018-02-17T04:55:22.004Z,0.00
2018-02-17T04:56:21.992Z,0.00
2018-02-17T04:57:22.001Z,0.00
2018-02-17T04:58:21.980Z,0.00
2018-02-17T04:59:21.950Z,0.00
2018-02-17T05:00:21.901Z,0.00
2018-02-17T05:01:21.917Z,0.00
2018-02-17T05:02:21.835Z,0.00
2018-02-17T05:03:21.820Z,0.00
2018-02-17T05:04:21.766Z,0.00
2018-02-17T05:05:21.793Z,0.00
2018-02-17T05:06:21.753Z,0.00
2018-02-17T05:07:21.745Z,0.00
2018-02-17T05:08:21.676Z,0.00
2018-02-17T05:09:21.652Z,0.00
2018-02-17T05:10:21.705Z,0.00
2018-02-17T05:11:21.657Z,0.00
2018-02-17T05:12:21.662Z,0.00
2018-02-17T05:13:21.557Z,0.00
2018-02-17T05:14:21.522Z,0.00
2018-02-17T05:15:21.516Z,0.00
2018-02-17T05:16:21.503Z,0.00
2018-02-17T05:17:21.505Z,0.00
2018-02-17T05:18:21.450Z,0.00
2018-02-17T05:19:21.436Z,0.00
2018-02-17T05:20:21.405Z,0.00
2018-02-17T05:21:21.339Z,0.00
2018-02-17T05:22:21.360Z,0.00
2018-02-17T05:23:21.341Z,0.00
2018-02-17T05:24:21.286Z,0.00
2018-02-17T05:25:21.328Z,0.00
2018-02-17T05:26:21.266Z,0.00
2018-02-17T05:27:21.278Z,0.00
2018-02-17T05:28:21.263Z,0.00
2018-02-17T05:29:21.192Z,0.00
2018-02-17T05:30:21.185Z,0.00
2018-02-17T05:31:21.159Z,0.00
2018-02-17T05:32:21.098Z,0.00
2018-02-17T05:33:21.096Z,0.00
2018-02-17T05:34:21.029Z,0.00
2018-02-17T05:35:21.031Z,0.00
2018-02-17T05:36:21.029Z,0.00
2018-02-17T05:37:21.036Z,0.00
2018-02-17T05:38:20.963Z,0.00
2018-02-17T05:39:20.944Z,0.00
2018-02-17T05:40:20.878Z,0.00
2018-02-17T05:41:20.894Z,0.00
2018-02-17T05:42:20.863Z,0.00
2018-02-17T05:43:20.803Z,0.00
2018-02-17T05:44:20.794Z,0.00
2018-02-17T05:45:20.785Z,0.00
2018-02-17T05:46:20.797Z,0.00
2018-02-17T05:47:20.703Z,0.00
2018-02-17T05:48:20.761Z,0.00
2018-02-17T05:49:20.700Z,0.00
2018-02-17T05:50:20.638Z,0.00
2018-02-17T05:51:20.634Z,0.00
2018-02-17T05:52:20.601Z,0.00
2018-02-17T05:53:20.608Z,0.00
2018-02-17T05:54:20.555Z,0.00
2018-02-17T05:55:20.545Z,0.00
2018-02-17T05:56:20.524Z,0.00
2018-02-17T05:57:20.544Z,0.00
2018-02-17T05:58:20.508Z,0.00
2018-02-17T05:59:20.428Z,0.00
2018-02-17T06:00:20.438Z,0.00
2018-02-17T06:01:20.386Z,0.00
2018-02-17T06:02:20.403Z,0.00
2018-02-17T06:03:20.378Z,0.00
2018-02-17T06:04:20.285Z,4.00
2018-02-17T06:05:20.383Z,4.00
2018-02-17T06:06:21.235Z,0.00
2018-02-17T06:07:20.212Z,4.00
2018-02-17T06:08:20.243Z,0.00
2018-02-17T06:09:20.180Z,4.00
2018-02-17T06:10:20.131Z,8.00
2018-02-17T06:11:20.122Z,4.00
2018-02-17T06:12:20.099Z,4.00
2018-02-17T06:13:20.098Z,8.00
2018-02-17T06:14:20.084Z,8.00
2018-02-17T06:15:20.055Z,12.00
2018-02-17T06:16:20.064Z,12.00
2018-02-17T06:17:19.993Z,16.00
2018-02-17T06:18:19.976Z,16.00
2018-02-17T06:19:19.956Z,20.00
2018-02-17T06:20:19.942Z,28.00
2018-02-17T06:21:19.884Z,32.00
2018-02-17T06:22:19.894Z,32.00
2018-02-17T06:23:19.889Z,36.00
2018-02-17T06:24:20.144Z,40.00
2018-02-17T06:25:19.808Z,40.00
2018-02-17T06:26:19.762Z,48.00
2018-02-17T06:27:19.731Z,52.00
2018-02-17T06:28:19.718Z,56.00
2018-02-17T06:29:19.764Z,64.00
2018-02-17T06:30:19.684Z,72.00
2018-02-17T06:31:19.701Z,76.00
2018-02-17T06:32:19.633Z,84.00
2018-02-17T06:33:19.616Z,92.00
2018-02-17T06:34:19.580Z,100.00
2018-02-17T06:35:19.547Z,108.00
2018-02-17T06:36:19.550Z,116.00
2018-02-17T06:37:19.470Z,128.00
2018-02-17T06:38:19.479Z,136.00
2018-02-17T06:39:19.449Z,140.00
2018-02-17T06:40:19.388Z,148.00
2018-02-17T06:41:19.448Z,160.00
2018-02-17T06:42:19.342Z,172.00
2018-02-17T06:43:19.419Z,180.00
2018-02-17T06:44:19.407Z,184.00
2018-02-17T06:45:19.368Z,196.00
2018-02-17T06:46:19.278Z,216.00
2018-02-17T06:47:19.263Z,232.00
2018-02-17T06:48:19.230Z,248.00
2018-02-17T06:49:19.170Z,268.00
2018-02-17T06:50:19.173Z,288.00
2018-02-17T06:51:19.143Z,320.00
2018-02-17T06:52:19.151Z,356.00
2018-02-17T06:53:19.087Z,388.00
2018-02-17T06:54:19.089Z,416.00
2018-02-17T06:55:19.020Z,440.00
2018-02-17T06:56:19.090Z,468.00
2018-02-17T06:57:19.046Z,488.00
2018-02-17T06:58:18.990Z,520.00
2018-02-17T06:59:19.022Z,552.00
2018-02-17T07:00:18.900Z,584.00
2018-02-17T07:01:18.935Z,624.00
2018-02-17T07:02:18.873Z,672.00
2018-02-17T07:03:18.936Z,716.00
2018-02-17T07:04:19.752Z,752.00
2018-02-17T07:05:18.798Z,776.00
2018-02-17T07:06:18.765Z,796.00
2018-02-17T07:07:18.793Z,820.00
2018-02-17T07:08:18.741Z,836.00
2018-02-17T07:09:18.765Z,848.00
2018-02-17T07:10:18.747Z,868.00
2018-02-17T07:11:18.688Z,900.00
2018-02-17T07:12:18.635Z,932.00
2018-02-17T07:13:18.617Z,976.00
2018-02-17T07:14:18.585Z,1016.00
2018-02-17T07:15:18.600Z,1084.00
2018-02-17T07:16:18.582Z,1148.00
2018-02-17T07:17:18.520Z,1232.00
2018-02-17T07:18:18.462Z,1328.00
2018-02-17T07:19:18.428Z,1408.00
2018-02-17T07:20:18.483Z,1468.00
2018-02-17T07:21:18.416Z,1528.00
2018-02-17T07:22:18.411Z,1584.00
2018-02-17T07:23:18.340Z,1632.00
2018-02-17T07:24:18.333Z,1668.00
2018-02-17T07:25:18.287Z,1704.00
2018-02-17T07:26:18.277Z,1716.00
2018-02-17T07:27:18.269Z,1752.00
2018-02-17T07:28:18.204Z,1800.00
2018-02-17T07:29:18.236Z,1852.00
2018-02-17T07:30:18.213Z,1896.00
2018-02-17T07:31:18.174Z,1936.00
2018-02-17T07:32:18.127Z,1988.00
2018-02-17T07:33:18.130Z,2020.00
2018-02-17T07:34:18.089Z,2064.00
2018-02-17T07:35:18.084Z,2108.00
2018-02-17T07:36:18.018Z,2124.00
2018-02-17T07:37:17.996Z,2176.00
2018-02-17T07:38:17.955Z,2244.00
2018-02-17T07:39:17.970Z,2292.00
2018-02-17T07:40:17.992Z,2368.00
2018-02-17T07:41:17.905Z,2412.00
2018-02-17T07:42:17.886Z,2428.00
2018-02-17T07:43:17.840Z,2464.00
2018-02-17T07:44:17.832Z,2492.00
2018-02-17T07:45:17.829Z,2476.00
2018-02-17T07:46:17.774Z,2476.00
2018-02-17T07:47:17.758Z,2564.00
2018-02-17T07:48:17.735Z,2568.00
2018-02-17T07:49:17.709Z,2548.00
2018-02-17T07:50:17.808Z,2592.00
2018-02-17T07:51:17.693Z,2612.00
2018-02-17T07:52:17.650Z,2540.00
2018-02-17T07:53:17.663Z,2492.00
2018-02-17T07:54:17.572Z,2564.00
2018-02-17T07:55:17.589Z,2656.00
2018-02-17T07:56:17.555Z,2724.00
2018-02-17T07:57:17.558Z,2752.00
2018-02-17T07:58:17.508Z,2804.00
2018-02-17T07:59:17.531Z,2824.00
2018-02-17T08:00:17.460Z,2812.00
2018-02-17T08:01:17.411Z,2800.00
2018-02-17T08:02:17.414Z,2796.00
2018-02-17T08:03:17.403Z,2800.00
2018-02-17T08:04:17.398Z,2812.00
2018-02-17T08:05:17.331Z,2812.00
2018-02-17T08:06:17.300Z,2800.00
2018-02-17T08:07:17.340Z,2792.00
2018-02-17T08:08:17.239Z,2892.00
2018-02-17T08:09:17.209Z,2944.00
2018-02-17T08:10:17.202Z,3040.00
2018-02-17T08:11:17.212Z,3128.00
2018-02-17T08:12:17.147Z,3188.00
2018-02-17T08:13:17.134Z,3284.00
2018-02-17T08:14:17.139Z,3316.00
2018-02-17T08:15:23.736Z,3280.00
2018-02-17T08:16:17.063Z,3288.00
2018-02-17T08:17:17.063Z,3272.00
2018-02-17T08:18:17.011Z,1736.00
2018-02-17T08:19:16.978Z,1740.00
2018-02-17T08:20:16.985Z,1764.00
2018-02-17T08:21:16.969Z,1776.00
2018-02-17T08:22:16.934Z,1784.00
2018-02-17T08:23:16.881Z,1796.00
2018-02-17T08:24:16.888Z,1792.00
2018-02-17T08:25:16.839Z,1816.00
2018-02-17T08:26:16.823Z,1808.00
2018-02-17T08:27:16.782Z,1776.00
2018-02-17T08:28:16.800Z,1740.00
2018-02-17T08:29:16.745Z,1808.00
2018-02-17T08:30:16.728Z,1868.00
2018-02-17T08:31:16.697Z,1860.00
2018-02-17T08:32:16.701Z,1884.00
2018-02-17T08:33:16.670Z,1940.00
2018-02-17T08:34:16.642Z,2000.00
2018-02-17T08:35:16.606Z,2016.00
2018-02-17T08:36:16.610Z,2004.00
2018-02-17T08:37:16.567Z,1988.00
2018-02-17T08:38:16.528Z,1976.00
2018-02-17T08:39:16.495Z,2028.00
2018-02-17T08:40:16.507Z,2060.00
2018-02-17T08:41:16.444Z,2080.00
2018-02-17T08:42:16.430Z,2116.00
2018-02-17T08:43:16.429Z,2172.00
2018-02-17T08:44:16.360Z,2224.00
2018-02-17T08:45:16.421Z,2260.00
2018-02-17T08:46:16.478Z,2276.00
2018-02-17T08:47:16.297Z,2296.00
2018-02-17T08:48:16.324Z,2324.00
2018-02-17T08:49:16.269Z,2396.00
2018-02-17T08:50:16.262Z,2436.00
2018-02-17T08:51:16.228Z,2424.00
2018-02-17T08:52:16.178Z,2440.00
2018-02-17T08:53:16.179Z,2456.00
2018-02-17T08:54:16.137Z,2460.00
2018-02-17T08:55:16.121Z,2460.00
2018-02-17T08:56:16.095Z,2452.00
2018-02-17T08:57:16.055Z,2448.00
2018-02-17T08:58:16.076Z,2428.00
2018-02-17T08:59:16.024Z,2404.00
2018-02-17T09:00:16.015Z,2396.00
2018-02-17T09:01:15.960Z,2400.00
2018-02-17T09:02:15.949Z,2412.00
2018-02-17T09:03:15.937Z,2448.00
2018-02-17T09:04:15.931Z,2492.00
2018-02-17T09:05:15.887Z,2536.00
2018-02-17T09:06:15.848Z,2588.00
2018-02-17T09:07:15.821Z,2628.00
2018-02-17T09:08:15.819Z,2672.00
2018-02-17T09:09:15.776Z,2720.00
2018-02-17T09:10:15.775Z,2772.00
2018-02-17T09:11:15.777Z,2812.00
2018-02-17T09:12:15.720Z,2824.00
2018-02-17T09:13:15.694Z,2856.00
2018-02-17T09:14:15.672Z,2912.00
2018-02-17T09:15:15.655Z,2996.00
2018-02-17T09:16:15.674Z,3104.00
2018-02-17T09:17:15.594Z,3252.00
2018-02-17T09:18:15.564Z,3412.00
2018-02-17T09:19:15.576Z,3540.00
2018-02-17T09:20:15.529Z,3652.00
2018-02-17T09:21:15.500Z,3724.00
2018-02-17T09:22:15.465Z,3788.00
2018-02-17T09:23:15.459Z,3836.00
2018-02-17T09:24:15.425Z,3844.00
2018-02-17T09:25:15.406Z,3848.00
2018-02-17T09:26:15.390Z,3872.00
2018-02-17T09:27:15.359Z,3976.00
2018-02-17T09:28:15.324Z,4072.00
2018-02-17T09:29:15.377Z,4140.00
2018-02-17T09:30:15.806Z,4148.00
2018-02-17T09:31:15.261Z,4156.00
2018-02-17T09:32:15.238Z,4184.00
2018-02-17T09:33:15.226Z,4224.00
2018-02-17T09:34:15.194Z,4244.00
2018-02-17T09:35:15.190Z,4252.00
2018-02-17T09:36:15.150Z,4248.00
2018-02-17T09:37:15.172Z,4236.00
2018-02-17T09:38:15.137Z,4228.00
2018-02-17T09:39:15.064Z,4200.00
2018-02-17T09:40:15.071Z,4188.00
2018-02-17T09:41:15.021Z,4232.00
2018-02-17T09:42:15.003Z,4300.00
2018-02-17T09:43:15.031Z,4364.00
2018-02-17T09:44:14.995Z,4472.00
2018-02-17T09:45:14.949Z,4644.00
2018-02-17T09:46:14.906Z,4840.00
2018-02-17T09:47:14.915Z,5004.00
2018-02-17T09:48:14.878Z,5108.00
2018-02-17T09:49:14.842Z,5220.00
2018-02-17T09:50:14.834Z,5324.00
2018-02-17T09:51:14.815Z,5360.00
2018-02-17T09:52:14.803Z,5348.00
2018-02-17T09:53:14.774Z,5340.00
2018-02-17T09:54:14.731Z,5288.00
2018-02-17T09:55:14.772Z,5248.00
2018-02-17T09:56:14.802Z,5376.00
2018-02-17T09:57:14.720Z,5476.00
2018-02-17T09:58:14.687Z,5444.00
2018-02-17T09:59:14.821Z,5428.00
2018-02-17T10:00:14.659Z,5500.00
2018-02-17T10:01:15.177Z,5552.00
2018-02-17T10:02:15.614Z,5516.00
2018-02-17T10:03:14.764Z,5624.00
2018-02-17T10:04:14.515Z,5748.00
2018-02-17T10:05:14.493Z,6088.00
2018-02-17T10:06:14.486Z,6276.00
2018-02-17T10:07:14.488Z,6296.00
2018-02-17T10:08:14.429Z,6300.00
2018-02-17T10:09:14.397Z,6304.00
2018-02-17T10:10:14.386Z,6272.00
2018-02-17T10:11:14.356Z,6208.00
2018-02-17T10:12:14.360Z,6064.00
2018-02-17T10:13:14.313Z,5916.00
2018-02-17T10:14:14.312Z,5832.00
2018-02-17T10:15:14.303Z,5664.00
2018-02-17T10:16:14.259Z,5536.00
2018-02-17T10:17:14.202Z,5452.00
2018-02-17T10:18:14.198Z,5280.00
2018-02-17T10:19:14.222Z,5180.00
2018-02-17T10:20:14.199Z,5096.00
2018-02-17T10:21:14.130Z,5088.00
2018-02-17T10:22:14.137Z,5072.00
2018-02-17T10:23:14.121Z,5080.00
2018-02-17T10:24:14.041Z,5100.00
2018-02-17T10:25:14.064Z,5036.00
2018-02-17T10:26:14.049Z,4924.00
2018-02-17T10:27:14.010Z,4808.00
2018-02-17T10:28:13.968Z,4684.00
2018-02-17T10:29:13.964Z,4600.00
2018-02-17T10:30:14.005Z,4516.00
2018-02-17T10:31:13.927Z,4480.00
2018-02-17T10:32:13.942Z,4500.00
2018-02-17T10:33:13.899Z,4508.00
2018-02-17T10:34:13.830Z,4484.00
2018-02-17T10:35:13.818Z,4444.00
2018-02-17T10:36:13.841Z,4460.00
2018-02-17T10:37:13.839Z,4436.00
2018-02-17T10:38:13.764Z,4428.00
2018-02-17T10:39:13.756Z,4416.00
2018-02-17T10:40:13.751Z,4372.00
2018-02-17T10:41:13.769Z,4308.00
2018-02-17T10:42:13.681Z,4276.00
2018-02-17T10:43:13.635Z,4260.00
2018-02-17T10:44:13.645Z,4264.00
2018-02-17T10:45:13.596Z,4248.00
2018-02-17T10:46:13.573Z,4196.00
2018-02-17T10:47:13.558Z,4148.00
2018-02-17T10:48:13.564Z,4128.00
2018-02-17T10:49:13.488Z,4120.00
2018-02-17T10:50:13.499Z,4092.00
2018-02-17T10:51:13.481Z,4072.00
2018-02-17T10:52:13.448Z,4028.00
2018-02-17T10:53:13.419Z,3956.00
2018-02-17T10:54:13.413Z,3924.00
2018-02-17T10:55:13.388Z,3920.00
2018-02-17T10:56:13.361Z,3968.00
2018-02-17T10:57:13.342Z,4008.00
2018-02-17T10:58:13.304Z,4032.00
2018-02-17T10:59:13.299Z,4044.00
2018-02-17T11:00:13.243Z,4072.00
2018-02-17T11:01:13.236Z,4056.00
2018-02-17T11:02:13.237Z,4024.00
2018-02-17T11:03:13.171Z,3992.00
2018-02-17T11:04:13.393Z,3984.00
2018-02-17T11:05:13.227Z,3972.00
2018-02-17T11:06:13.137Z,3968.00
2018-02-17T11:07:13.097Z,4016.00
2018-02-17T11:08:13.041Z,4092.00
2018-02-17T11:09:13.034Z,4172.00
2018-02-17T11:10:13.037Z,4232.00
2018-02-17T11:11:13.111Z,4280.00
2018-02-17T11:12:13.017Z,4292.00
2018-02-17T11:13:12.956Z,4248.00
2018-02-17T11:14:12.940Z,4236.00
2018-02-17T11:15:12.944Z,4256.00
2018-02-17T11:16:12.940Z,4304.00
2018-02-17T11:17:12.892Z,4340.00
2018-02-17T11:18:12.894Z,4372.00
2018-02-17T11:19:12.867Z,4572.00
2018-02-17T11:20:12.827Z,4700.00
2018-02-17T11:21:12.848Z,4752.00
2018-02-17T11:22:12.789Z,4744.00
2018-02-17T11:23:12.775Z,4716.00
2018-02-17T11:24:12.719Z,4724.00
2018-02-17T11:25:12.690Z,4748.00
2018-02-17T11:26:12.660Z,4860.00
2018-02-17T11:27:12.632Z,4884.00
2018-02-17T11:28:12.637Z,4872.00
2018-02-17T11:29:12.631Z,4860.00
2018-02-17T11:30:12.610Z,4800.00
2018-02-17T11:31:12.542Z,4736.00
2018-02-17T11:32:12.542Z,4736.00
2018-02-17T11:33:12.520Z,4820.00
2018-02-17T11:34:12.465Z,4928.00
2018-02-17T11:35:12.476Z,4984.00
2018-02-17T11:36:12.554Z,4940.00
2018-02-17T11:37:12.705Z,4872.00
2018-02-17T11:38:12.492Z,4824.00
2018-02-17T11:39:12.388Z,4772.00
2018-02-17T11:40:12.344Z,4780.00
2018-02-17T11:41:12.350Z,4776.00
2018-02-17T11:42:12.292Z,4796.00
2018-02-17T11:43:12.279Z,4792.00
2018-02-17T11:44:12.252Z,4804.00
2018-02-17T11:45:12.280Z,4784.00
2018-02-17T11:46:12.452Z,4776.00
2018-02-17T11:47:12.236Z,4720.00
2018-02-17T11:48:12.164Z,4676.00
2018-02-17T11:49:12.452Z,4660.00
2018-02-17T11:50:12.143Z,4656.00
2018-02-17T11:51:12.119Z,4668.00
2018-02-17T11:53:12.097Z,4680.00
2018-02-17T11:54:12.037Z,4680.00
2018-02-17T11:55:12.036Z,4672.00
2018-02-17T11:56:11.981Z,4688.00
2018-02-17T11:57:11.978Z,4688.00
2018-02-17T11:58:11.940Z,4700.00
2018-02-17T11:59:11.998Z,4680.00
2018-02-17T12:00:11.908Z,4708.00
2018-02-17T12:01:11.858Z,4776.00
2018-02-17T12:02:11.844Z,4864.00
2018-02-17T12:03:11.855Z,5004.00
2018-02-17T12:04:11.892Z,5052.00
2018-02-17T12:05:11.795Z,5080.00
2018-02-17T12:06:11.766Z,5132.00
2018-02-17T12:07:11.734Z,5140.00
2018-02-17T12:08:11.768Z,5084.00
2018-02-17T12:09:11.687Z,4988.00
2018-02-17T12:10:11.687Z,5060.00
2018-02-17T12:11:11.632Z,5152.00
2018-02-17T12:12:11.667Z,5196.00
2018-02-17T12:13:11.625Z,5224.00
2018-02-17T12:14:11.590Z,5188.00
2018-02-17T12:15:11.562Z,5124.00
2018-02-17T12:16:11.538Z,5088.00
2018-02-17T12:17:11.526Z,5108.00
2018-02-17T12:18:11.496Z,5196.00
2018-02-17T12:19:11.502Z,5280.00
2018-02-17T12:20:11.464Z,5312.00
2018-02-17T12:21:11.418Z,5368.00
2018-02-17T12:22:11.417Z,5376.00
2018-02-17T12:23:11.366Z,5344.00
2018-02-17T12:24:11.371Z,5336.00
2018-02-17T12:25:11.349Z,5352.00
2018-02-17T12:26:11.325Z,5296.00
2018-02-17T12:27:11.293Z,5224.00
2018-02-17T12:28:11.280Z,5164.00
2018-02-17T12:29:11.244Z,5108.00
2018-02-17T12:30:11.251Z,5084.00
2018-02-17T12:32:11.168Z,5120.00
2018-02-17T12:33:11.157Z,5164.00
2018-02-17T12:34:11.155Z,5260.00
2018-02-17T12:35:11.419Z,5348.00
2018-02-17T12:36:13.947Z,5500.00
2018-02-17T12:37:11.420Z,5676.00
2018-02-17T12:38:11.608Z,5720.00
2018-02-17T12:39:11.050Z,5672.00
2018-02-17T12:40:11.002Z,5588.00
2018-02-17T12:41:11.787Z,5472.00
2018-02-17T12:42:32.463Z,5396.00
2018-02-17T12:45:10.917Z,5232.00
2018-02-17T12:46:10.872Z,5104.00